Hannibal, WI (54439)

12:32 AM CDT on September 01, 2015 (GMT -0500)
N Gilman Dr | | Change Station
CLOSE
Current Station
Personal Weather Station
Location: Gilman, WI
Elevation: 1237 ft
Nearby Weather Stations

Elev 1237 ft 45.17 °N, 90.82 °W | Updated 1 minute ago

Overcast
Overcast
70.0 °F
Feels Like 70.0 °F
N
4.0
Wind Variable Wind from SE
Gusts 5.0 mph

Today
High -- | Low -- °F
--% Chance of Precip.
Yesterday
High -- | Low -- °F
Precip. -- in
6:24 AM 7:40 PM
Waning Gibbous, 91% visible
Pressure 29.97 in
Visibility 7.0 miles
Clouds Scattered Clouds 4600 ft
Dew Point 69 °F
Humidity 98%
Rainfall 0.00 in
Snow Depth Not available.
UV 0 out of 12
Pollen 10.60 out of 12
Air Quality Not available.
Flu Activity Not available.
METAR KRCX 010515Z AUTO 17006KT 7SM SCT046 22/21 A2997 RMK AO2 T02200206
Pressure 29.97 in
Visibility 7.0 miles
Clouds Scattered Clouds 4600 ft
Dew Point 69 °F
Humidity 98%
Rainfall 0.00 in
Snow Depth Not available.
UV 0 out of 12
Pollen 10.60 out of 12
Air Quality Not available.
Flu Activity Not available.
METAR KRCX 010515Z AUTO 17006KT 7SM SCT046 22/21 A2997 RMK AO2 T02200206

10-Day Weather Forecast

×

Almanac

Astronomy

Sep. 01, 2015 Rise Set
Actual Time
Civil Twilight
Nautical Twilight
Astronomical Twilight
Moon
Length of Visible Light
Length of Day
Tomorrow will be .
, % of the Moon is Illuminated

Today's Extremes

State Highs State Lows

Community

WunderPhotos

Upload Photos

1,851,481 photos uploaded!

WunderBlogs® & News

Nearby

Air Quality

  Air Quality AQ Index Pollutant
Not available.

Snow Depth

Station Depth Elevation

Earthquake Activity

City Distance Mag. Time & Date
Minimum magnitude displayed is 2.5.

Coastal Water Temperatures

Place Temperature

Stations

Nearby Weather Stations

Station Location Temp. Windchill Dew Point Humidity Wind Precip. Elev Updated Type